Terminal Aerodrome Forecast
Issued by NWS

Home | Current Version | Previous Version | Text Only | Print | Product List | Glossary On
Versions: 1 2 3 4 5 6 7 8 9 10 11 12 13 14
000
FTUS46 KHNX 281232 AAA
TAFMER
TAF AMD
KMER 281232Z 2813/2912 00000KT 1SM BR SKC
      TEMPO 2813/2816 1/2SM FG VV005
     FM281700 VRB03KT 4SM HZ SCT200
     FM290300 16004KT 3SM HZ BKN200=

USA.gov is the U.S. government's official web portal to all federal, state and local government web resources and services.